Time;durP1;ratioP1;P1;durP2;ratioP2;P2;SDS_P1;SDS_P2;PMS_P1;PMS_P2;Temp;Humidity;BMP_temperature;BMP_pressure;BME280_temperature;BME280_humidity;BME280_pressure;Samples;Min_cycle;Max_cycle;Signal;HPM_P1;HPM_P2
2021/03/05 00:00:51;;;;;;;10.40;6.93;;;3.40;99.90;;;;;;5034541;28;20224;-78
2021/03/05 00:03:17;;;;;;;10.10;7.05;;;3.30;99.90;;;;;;5032071;28;20228;-78
2021/03/05 00:05:44;;;;;;;13.65;7.10;;;3.50;99.90;;;;;;5025454;28;20567;-78
2021/03/05 00:08:12;;;;;;;9.93;6.70;;;3.40;99.90;;;;;;5024288;28;20201;-79
2021/03/05 00:10:40;;;;;;;14.73;8.30;;;3.40;99.90;;;;;;5023923;28;20208;-79
2021/03/05 00:13:08;;;;;;;11.00;6.70;;;3.30;99.90;;;;;;5021852;28;20232;-79
2021/03/05 00:15:40;;;;;;;13.02;7.68;;;3.20;99.90;;;;;;5022140;28;20209;-81
2021/03/05 00:18:07;;;;;;;14.00;7.82;;;3.10;99.90;;;;;;5022026;28;20188;-80
2021/03/05 00:20:36;;;;;;;16.77;9.50;;;3.10;99.90;;;;;;5036023;28;20227;-78
2021/03/05 00:23:03;;;;;;;13.30;7.90;;;3.10;99.90;;;;;;5037227;28;20247;-81
2021/03/05 00:25:29;;;;;;;10.45;8.70;;;3.10;99.90;;;;;;5028344;28;20239;-80
2021/03/05 00:27:55;;;;;;;14.82;9.95;;;3.10;99.90;;;;;;5037971;28;20189;-78
2021/03/05 00:30:23;;;;;;;17.33;10.23;;;3.10;99.90;;;;;;5040659;28;20211;-79
2021/03/05 00:32:49;;;;;;;12.50;9.50;;;3.10;99.90;;;;;;5040430;28;20204;-80
2021/03/05 00:35:17;;;;;;;19.45;10.35;;;3.00;99.90;;;;;;5040461;28;20169;-78
2021/03/05 00:37:44;;;;;;;16.38;10.25;;;3.10;99.90;;;;;;5040413;28;20203;-79
2021/03/05 00:40:12;;;;;;;19.58;10.07;;;3.10;99.90;;;;;;5040110;28;20202;-81
2021/03/05 00:42:39;;;;;;;21.13;10.95;;;3.10;99.90;;;;;;5036933;28;20230;-79
2021/03/05 00:45:07;;;;;;;18.50;10.65;;;2.90;99.90;;;;;;5027773;28;20208;-80
2021/03/05 00:47:34;;;;;;;19.88;11.23;;;2.90;99.90;;;;;;5020999;28;20200;-78
2021/03/05 00:50:01;;;;;;;22.20;11.40;;;3.00;99.90;;;;;;5021078;28;20608;-79
2021/03/05 00:52:27;;;;;;;20.65;11.45;;;3.00;99.90;;;;;;5019473;28;20308;-80
2021/03/05 00:54:53;;;;;;;20.40;11.63;;;3.10;99.90;;;;;;5020647;28;20204;-80
2021/03/05 00:57:19;;;;;;;28.20;11.77;;;3.00;99.90;;;;;;5020334;28;20236;-81
2021/03/05 00:59:45;;;;;;;15.63;9.20;;;2.90;99.90;;;;;;5028395;28;20201;-80
2021/03/05 01:02:11;;;;;;;20.23;12.50;;;2.80;99.90;;;;;;5032636;28;20232;-79
2021/03/05 01:04:38;;;;;;;14.18;9.95;;;3.10;99.90;;;;;;5024001;28;20189;-79
2021/03/05 01:07:04;;;;;;;26.95;12.10;;;2.80;99.90;;;;;;5020475;28;20222;-80
2021/03/05 01:09:30;;;;;;;17.13;11.18;;;2.80;99.90;;;;;;5028280;28;20204;-79
2021/03/05 01:11:57;;;;;;;17.98;9.93;;;2.80;99.90;;;;;;5022710;28;20220;-80
2021/03/05 01:14:23;;;;;;;15.80;10.23;;;2.90;99.90;;;;;;5020077;28;20679;-80
2021/03/05 01:16:49;;;;;;;19.60;10.98;;;2.70;99.90;;;;;;5022061;28;20204;-79
2021/03/05 01:19:15;;;;;;;19.98;11.60;;;2.60;99.90;;;;;;5030946;28;20231;-80
2021/03/05 01:21:42;;;;;;;19.98;12.00;;;2.80;99.90;;;;;;5018990;28;20231;-81
2021/03/05 01:24:09;;;;;;;21.52;10.40;;;2.50;99.90;;;;;;5022218;28;20208;-81
2021/03/05 01:26:36;;;;;;;24.40;9.60;;;2.70;99.90;;;;;;5021785;28;20208;-79
2021/03/05 01:29:03;;;;;;;19.30;11.55;;;2.80;99.90;;;;;;5028521;28;20223;-81
2021/03/05 01:31:29;;;;;;;21.90;11.30;;;2.90;99.90;;;;;;5030421;28;20216;-80
2021/03/05 01:33:55;;;;;;;19.77;11.57;;;2.80;99.90;;;;;;5026339;28;20228;-79
2021/03/05 01:36:21;;;;;;;25.35;11.65;;;2.90;99.90;;;;;;5029395;28;20199;-79
2021/03/05 01:38:48;;;;;;;21.27;11.48;;;2.80;99.90;;;;;;5029107;28;20204;-79
2021/03/05 01:41:14;;;;;;;28.00;12.35;;;2.70;99.90;;;;;;5028164;28;20236;-79
2021/03/05 01:43:41;;;;;;;18.77;8.38;;;2.70;99.90;;;;;;5025512;28;20239;-81
2021/03/05 01:46:07;;;;;;;22.02;11.15;;;2.60;99.90;;;;;;5019250;28;20566;-81
2021/03/05 01:48:35;;;;;;;22.80;10.30;;;2.50;99.90;;;;;;5023580;28;20209;-81
2021/03/05 01:51:07;;;;;;;21.80;13.55;;;2.40;99.90;;;;;;5019370;28;20247;-81
2021/03/05 01:53:33;;;;;;;24.58;11.60;;;2.20;99.90;;;;;;5026204;28;20231;-80
2021/03/05 01:56:02;;;;;;;20.73;11.52;;;2.30;99.90;;;;;;5024687;28;20595;-81
2021/03/05 01:58:28;;;;;;;28.38;12.60;;;2.10;99.90;;;;;;5021172;28;20185;-81
2021/03/05 02:00:58;;;;;;;26.75;11.35;;;2.00;99.90;;;;;;5017910;28;20593;-81
2021/03/05 02:03:24;;;;;;;31.27;13.75;;;1.90;99.90;;;;;;5017973;28;20235;-81
2021/03/05 02:05:50;;;;;;;20.83;10.73;;;2.00;99.90;;;;;;5022764;28;20208;-79
2021/03/05 02:08:16;;;;;;;25.60;11.68;;;2.00;99.90;;;;;;5028899;28;20204;-80
2021/03/05 02:10:42;;;;;;;26.45;11.82;;;2.00;99.90;;;;;;5028727;28;20204;-80
2021/03/05 02:13:10;;;;;;;26.75;12.85;;;1.90;99.90;;;;;;5022687;28;20231;-81
2021/03/05 02:15:38;;;;;;;34.38;13.18;;;1.90;99.90;;;;;;5016971;28;20204;-81
2021/03/05 02:18:10;;;;;;;32.33;12.77;;;1.90;99.90;;;;;;5017034;28;20204;-81
2021/03/05 02:20:44;;;;;;;37.25;12.55;;;1.80;99.90;;;;;;5016958;28;20575;-81
2021/03/05 02:23:32;;;;;;;22.17;9.77;;;1.70;99.90;;;;;;5016611;28;20223;-81
2021/03/05 02:26:29;;;;;;;28.58;10.75;;;1.70;99.90;;;;;;5017028;28;20185;-81
2021/03/05 02:29:09;;;;;;;27.95;13.35;;;1.70;99.90;;;;;;5017200;28;20195;-80
2021/03/05 02:31:41;;;;;;;29.15;14.05;;;1.40;99.90;;;;;;5023428;28;20242;-79
2021/03/05 02:34:13;;;;;;;29.08;13.00;;;1.50;99.90;;;;;;5027823;28;20262;-81
2021/03/05 02:36:45;;;;;;;30.00;12.30;;;1.60;99.90;;;;;;5021457;28;20192;-81
2021/03/05 02:39:14;;;;;;;34.80;12.65;;;1.60;99.90;;;;;;5017491;28;20189;-81
2021/03/05 02:41:42;;;;;;;33.72;11.90;;;1.30;99.90;;;;;;5017461;28;20224;-81
2021/03/05 02:44:13;;;;;;;25.85;8.55;;;1.40;99.90;;;;;;5016611;28;20211;-81
2021/03/05 02:46:42;;;;;;;24.13;12.25;;;1.30;99.90;;;;;;5016740;28;20196;-81
2021/03/05 02:49:11;;;;;;;25.88;11.23;;;1.30;99.90;;;;;;5016783;28;20201;-81
2021/03/05 02:51:39;;;;;;;32.33;12.48;;;1.10;99.90;;;;;;5016942;28;20204;-81
2021/03/05 02:54:06;;;;;;;35.45;12.27;;;1.30;99.90;;;;;;5016548;28;20208;-81
2021/03/05 02:56:33;;;;;;;31.65;10.98;;;1.30;99.90;;;;;;5016546;28;20207;-81
2021/03/05 02:59:01;;;;;;;22.20;9.95;;;1.30;99.90;;;;;;5016522;28;20204;-80
2021/03/05 03:01:28;;;;;;;33.85;13.40;;;1.20;99.90;;;;;;5016208;28;20303;-81
2021/03/05 03:03:57;;;;;;;25.88;9.65;;;1.10;99.90;;;;;;5016407;28;20235;-80
2021/03/05 03:06:25;;;;;;;28.55;11.48;;;1.10;99.90;;;;;;5022098;28;20204;-77
2021/03/05 03:08:53;;;;;;;23.38;9.52;;;1.10;99.90;;;;;;5021701;28;20259;-80
2021/03/05 03:11:20;;;;;;;20.25;9.35;;;1.00;99.90;;;;;;5017694;28;20224;-80
2021/03/05 03:13:48;;;;;;;30.58;11.27;;;1.00;99.90;;;;;;5020143;28;20228;-80
2021/03/05 03:16:17;;;;;;;24.10;9.18;;;0.90;99.90;;;;;;5020455;28;20236;-80
2021/03/05 03:18:45;;;;;;;30.27;9.50;;;0.80;99.90;;;;;;5019841;28;20212;-82
2021/03/05 03:21:13;;;;;;;28.88;10.45;;;0.80;99.90;;;;;;5020434;28;20227;-80
2021/03/05 03:23:39;;;;;;;31.63;11.23;;;0.90;99.90;;;;;;5020337;28;20229;-80
2021/03/05 03:26:07;;;;;;;20.45;8.27;;;0.90;99.90;;;;;;5020703;28;20240;-80
2021/03/05 03:28:33;;;;;;;22.90;10.25;;;0.80;99.90;;;;;;5019930;28;20258;-80
2021/03/05 03:30:59;;;;;;;33.30;11.85;;;0.80;99.90;;;;;;5019857;28;20181;-80
2021/03/05 03:33:26;;;;;;;26.30;9.82;;;0.80;99.90;;;;;;5019861;28;20665;-80
2021/03/05 03:35:53;;;;;;;28.70;10.35;;;0.80;99.90;;;;;;5020068;28;20619;-80
2021/03/05 03:38:21;;;;;;;29.10;12.20;;;0.90;99.90;;;;;;5032031;28;20204;-78
2021/03/05 03:40:48;;;;;;;28.88;10.20;;;0.90;99.90;;;;;;5033940;28;20220;-78
2021/03/05 03:43:14;;;;;;;26.95;8.48;;;0.80;99.90;;;;;;5033520;28;20232;-78
2021/03/05 03:45:42;;;;;;;17.73;7.60;;;0.70;99.90;;;;;;5028913;28;20243;-81
2021/03/05 03:48:10;;;;;;;27.00;9.70;;;0.80;99.90;;;;;;5021851;28;20204;-82
2021/03/05 03:50:39;;;;;;;25.45;9.00;;;0.80;99.90;;;;;;5021482;28;20258;-82
2021/03/05 03:53:12;;;;;;;21.33;9.00;;;0.90;99.90;;;;;;5019644;28;20364;-81
2021/03/05 03:55:39;;;;;;;20.75;10.18;;;0.60;99.90;;;;;;5025448;28;20211;-78
2021/03/05 03:58:06;;;;;;;21.52;9.07;;;0.70;99.90;;;;;;5024115;28;20208;-81
2021/03/05 04:00:34;;;;;;;18.42;8.18;;;0.60;99.90;;;;;;5039958;28;20184;-79
2021/03/05 04:03:04;;;;;;;26.00;9.25;;;0.60;99.90;;;;;;5044536;22;20232;-81
2021/03/05 04:05:33;;;;;;;23.92;8.45;;;0.60;99.90;;;;;;5020036;28;20204;-81
2021/03/05 04:08:00;;;;;;;21.65;8.68;;;0.70;99.90;;;;;;5020106;28;20212;-81
2021/03/05 04:10:28;;;;;;;14.23;7.20;;;0.70;99.90;;;;;;5019279;28;20698;-81
2021/03/05 04:12:56;;;;;;;25.58;9.70;;;0.70;99.90;;;;;;5018113;28;20547;-81
2021/03/05 04:15:24;;;;;;;22.13;8.40;;;0.90;99.90;;;;;;5019448;28;20922;-81
2021/03/05 04:17:51;;;;;;;17.23;8.15;;;0.60;99.90;;;;;;5020075;28;20214;-82
2021/03/05 04:20:21;;;;;;;18.73;8.13;;;0.60;99.90;;;;;;5020112;28;20201;-82
2021/03/05 04:22:48;;;;;;;14.10;6.43;;;0.60;99.90;;;;;;5019272;28;20256;-83
2021/03/05 04:25:16;;;;;;;20.35;9.10;;;0.50;99.90;;;;;;5019815;28;20204;-82
2021/03/05 04:27:42;;;;;;;14.02;6.82;;;0.60;99.90;;;;;;5018036;28;20215;-82
2021/03/05 04:30:10;;;;;;;14.60;6.95;;;0.70;99.90;;;;;;5020171;28;20200;-82
2021/03/05 04:32:38;;;;;;;11.65;6.38;;;0.60;99.90;;;;;;5021501;28;20235;-82
2021/03/05 04:35:06;;;;;;;20.55;8.40;;;0.60;99.90;;;;;;5023898;28;20633;-82
2021/03/05 04:37:32;;;;;;;8.07;5.57;;;0.70;99.90;;;;;;5024336;28;20204;-82
2021/03/05 04:39:58;;;;;;;17.65;6.55;;;0.50;99.90;;;;;;5022224;28;20220;-82
2021/03/05 04:42:24;;;;;;;13.20;6.40;;;0.40;99.90;;;;;;5034562;28;20216;-80
2021/03/05 04:44:50;;;;;;;15.75;7.63;;;0.40;99.90;;;;;;5038008;28;20205;-81
2021/03/05 04:47:17;;;;;;;13.55;6.90;;;0.40;99.90;;;;;;5025717;28;20566;-82
2021/03/05 04:49:43;;;;;;;17.10;7.60;;;0.30;99.90;;;;;;5019495;28;20434;-82
2021/03/05 04:52:09;;;;;;;20.15;8.55;;;0.40;99.90;;;;;;5018992;28;20462;-82
2021/03/05 04:54:35;;;;;;;15.95;8.18;;;0.30;99.90;;;;;;5019913;28;20216;-81
2021/03/05 04:57:02;;;;;;;17.30;7.75;;;0.30;99.90;;;;;;5019655;28;20349;-81
2021/03/05 04:59:28;;;;;;;12.10;6.85;;;0.40;99.90;;;;;;5019544;28;20209;-82
2021/03/05 05:01:54;;;;;;;17.25;8.40;;;0.30;99.90;;;;;;5018763;28;20478;-81
2021/03/05 05:04:21;;;;;;;19.03;8.80;;;0.30;99.90;;;;;;5018693;28;20587;-82
2021/03/05 05:06:47;;;;;;;18.45;8.68;;;0.20;99.90;;;;;;5019733;28;20867;-82
2021/03/05 05:09:13;;;;;;;20.63;8.30;;;-0.40;99.90;;;;;;5019436;28;20204;-81
2021/03/05 05:11:39;;;;;;;17.05;8.15;;;0.20;99.90;;;;;;5018680;28;20204;-81
2021/03/05 05:14:05;;;;;;;18.95;8.82;;;0.20;99.90;;;;;;5018778;28;20228;-81
2021/03/05 05:16:31;;;;;;;19.75;9.68;;;0.20;99.90;;;;;;5018726;28;20236;-81
2021/03/05 05:19:00;;;;;;;26.38;9.55;;;0.00;99.90;;;;;;5025059;28;20439;-81
2021/03/05 05:21:27;;;;;;;17.52;8.48;;;0.20;99.90;;;;;;5031827;28;20239;-80
2021/03/05 05:23:53;;;;;;;20.52;8.40;;;0.20;99.90;;;;;;5033739;28;20251;-80
2021/03/05 05:26:19;;;;;;;20.75;9.40;;;0.10;99.90;;;;;;5025735;28;20717;-82
2021/03/05 05:28:45;;;;;;;22.25;9.35;;;0.30;99.90;;;;;;5021686;28;20238;-82
2021/03/05 05:31:11;;;;;;;17.83;9.90;;;0.00;99.90;;;;;;5019542;28;20204;-81
2021/03/05 05:33:37;;;;;;;18.48;8.35;;;0.00;99.90;;;;;;5018381;28;20784;-82
2021/03/05 05:36:04;;;;;;;24.77;10.80;;;-0.10;99.90;;;;;;5020210;28;20204;-81
2021/03/05 05:38:31;;;;;;;28.85;12.77;;;0.00;99.90;;;;;;5018999;28;20196;-81
2021/03/05 05:41:00;;;;;;;20.05;10.80;;;-0.10;99.90;;;;;;5018173;28;20220;-81
2021/03/05 05:43:30;;;;;;;18.25;10.60;;;0.00;99.90;;;;;;5018199;28;20326;-81
2021/03/05 05:46:01;;;;;;;15.57;8.52;;;0.00;99.90;;;;;;5018438;28;20211;-82
2021/03/05 05:48:27;;;;;;;26.80;10.68;;;0.80;99.90;;;;;;5023111;28;20572;-80
2021/03/05 05:50:55;;;;;;;26.48;9.93;;;0.50;99.90;;;;;;5019970;28;20659;-81
2021/03/05 05:53:22;;;;;;;16.92;8.50;;;-0.10;99.90;;;;;;5018211;28;20224;-81
2021/03/05 05:55:49;;;;;;;17.92;8.48;;;-0.10;99.90;;;;;;5018625;28;20207;-81
2021/03/05 05:58:16;;;;;;;16.98;7.90;;;-0.10;99.90;;;;;;5018939;28;20537;-83
2021/03/05 06:00:42;;;;;;;18.58;8.20;;;-0.20;99.90;;;;;;5018469;28;20212;-83
2021/03/05 06:03:08;;;;;;;11.30;6.25;;;-0.20;99.90;;;;;;5018123;28;20232;-82
2021/03/05 06:05:34;;;;;;;8.27;6.78;;;-0.10;99.90;;;;;;5018337;28;20240;-83
2021/03/05 06:08:01;;;;;;;13.73;7.03;;;-0.10;99.90;;;;;;5018714;28;20231;-83
2021/03/05 06:10:28;;;;;;;10.65;5.82;;;0.00;99.90;;;;;;5018534;28;20286;-83
2021/03/05 06:12:54;;;;;;;7.53;5.70;;;0.00;99.90;;;;;;5018341;28;20679;-83
2021/03/05 06:15:21;;;;;;;10.90;5.88;;;0.60;99.90;;;;;;5021013;28;20208;-83
2021/03/05 06:17:49;;;;;;;15.95;5.05;;;0.10;99.90;;;;;;5026407;28;20200;-83
2021/03/05 06:20:16;;;;;;;10.52;8.02;;;0.10;99.90;;;;;;5027944;28;20299;-82
2021/03/05 06:22:42;;;;;;;10.43;6.35;;;0.00;99.90;;;;;;5024098;28;20236;-80
2021/03/05 06:25:11;;;;;;;16.35;7.18;;;0.10;99.90;;;;;;5024752;28;20204;-82
2021/03/05 06:27:38;;;;;;;9.88;6.18;;;0.20;99.90;;;;;;5019792;28;20215;-81
2021/03/05 06:30:07;;;;;;;7.20;5.70;;;0.10;99.90;;;;;;5020330;28;20208;-82
2021/03/05 06:32:36;;;;;;;9.82;6.57;;;0.30;99.90;;;;;;5020236;28;20216;-82
2021/03/05 06:35:02;;;;;;;8.15;5.40;;;0.40;99.90;;;;;;5019786;28;20228;-82
2021/03/05 06:37:42;;;;;;;9.35;5.75;;;0.40;99.90;;;;;;5020212;28;20211;-82
2021/03/05 06:40:09;;;;;;;8.45;5.50;;;0.50;99.90;;;;;;5019670;28;20204;-81
2021/03/05 06:42:49;;;;;;;12.13;6.07;;;0.50;99.90;;;;;;5019680;28;20776;-82
2021/03/05 06:45:18;;;;;;;11.90;6.05;;;0.60;99.90;;;;;;5018554;28;20215;-81
2021/03/05 06:48:00;;;;;;;7.78;5.53;;;0.90;99.90;;;;;;5023830;28;20203;-82
2021/03/05 06:50:26;;;;;;;10.13;5.47;;;0.60;99.90;;;;;;5024119;28;20211;-82
2021/03/05 06:52:52;;;;;;;8.38;5.57;;;0.70;99.90;;;;;;5023652;28;20251;-82
2021/03/05 06:55:18;;;;;;;9.75;5.70;;;0.80;99.90;;;;;;5023021;28;20286;-81
2021/03/05 06:57:45;;;;;;;11.15;5.85;;;0.80;99.90;;;;;;5022744;28;20212;-81
2021/03/05 07:00:17;;;;;;;7.50;4.97;;;0.90;99.90;;;;;;5021973;28;20519;-82
2021/03/05 07:02:44;;;;;;;7.88;4.90;;;1.00;99.90;;;;;;5021554;28;20235;-81
2021/03/05 07:05:11;;;;;;;7.35;5.05;;;1.00;99.90;;;;;;5022699;28;20593;-81
2021/03/05 07:07:42;;;;;;;9.40;5.30;;;0.90;99.90;;;;;;5023806;28;20234;-82
2021/03/05 07:10:10;;;;;;;8.23;5.60;;;1.00;99.90;;;;;;5024221;28;20188;-82
2021/03/05 07:12:36;;;;;;;12.48;5.40;;;1.20;99.90;;;;;;5022451;28;20224;-81
2021/03/05 07:15:05;;;;;;;9.13;5.47;;;1.20;99.90;;;;;;5022946;28;20200;-81
2021/03/05 07:17:31;;;;;;;9.40;4.85;;;1.20;99.90;;;;;;5023664;28;20204;-82
2021/03/05 07:20:01;;;;;;;9.57;5.70;;;1.20;99.90;;;;;;5023219;28;20204;-82
2021/03/05 07:22:29;;;;;;;11.15;4.28;;;1.30;99.90;;;;;;5022713;28;20247;-82
2021/03/05 07:24:56;;;;;;;5.05;3.90;;;1.40;99.90;;;;;;5023007;28;20205;-81
2021/03/05 07:27:31;;;;;;;7.65;4.55;;;1.50;99.90;;;;;;5022618;28;20242;-81
2021/03/05 07:29:58;;;;;;;18.13;8.77;;;1.70;99.90;;;;;;5022649;28;20192;-82
2021/03/05 07:32:34;;;;;;;20.50;11.10;;;1.50;99.90;;;;;;5023152;28;20298;-81
2021/03/05 07:35:04;;;;;;;6.45;5.45;;;1.60;99.90;;;;;;5022246;28;20196;-82
2021/03/05 07:37:32;;;;;;;9.75;5.60;;;1.40;99.90;;;;;;5023421;28;20644;-81
2021/03/05 07:40:03;;;;;;;8.63;5.70;;;2.10;99.90;;;;;;5025397;28;20208;-82
2021/03/05 07:42:32;;;;;;;5.57;5.03;;;1.80;99.90;;;;;;5024637;28;20228;-83
2021/03/05 07:44:58;;;;;;;10.40;5.40;;;1.80;99.90;;;;;;5024990;28;20288;-82
2021/03/05 07:47:25;;;;;;;7.05;4.60;;;1.90;99.90;;;;;;5023554;28;20304;-83
2021/03/05 07:49:53;;;;;;;14.13;5.70;;;1.80;99.90;;;;;;5022735;28;20227;-83
2021/03/05 07:52:21;;;;;;;12.13;4.50;;;1.90;99.90;;;;;;5021050;28;20303;-80
2021/03/05 07:54:48;;;;;;;5.82;4.80;;;2.00;99.90;;;;;;5021867;28;20212;-81
2021/03/05 07:57:49;;;;;;;10.38;5.95;;;1.80;99.90;;;;;;5021567;28;20216;-81
2021/03/05 08:00:46;;;;;;;4.80;3.75;;;2.10;99.90;;;;;;5022957;28;20256;-81
2021/03/05 08:03:13;;;;;;;13.73;5.85;;;2.60;99.90;;;;;;5023040;28;20224;-81
2021/03/05 08:05:42;;;;;;;7.78;4.53;;;2.20;99.90;;;;;;5022793;28;20201;-81
2021/03/05 08:08:23;;;;;;;8.55;4.75;;;2.20;99.90;;;;;;5021819;28;20227;-81
2021/03/05 08:10:51;;;;;;;5.10;4.22;;;2.40;99.90;;;;;;5020920;28;20694;-80
2021/03/05 08:13:51;;;;;;;4.95;4.22;;;2.40;99.90;;;;;;5021153;28;20248;-80
2021/03/05 08:16:39;;;;;;;6.82;4.20;;;2.40;99.90;;;;;;5020461;28;20279;-79
2021/03/05 08:19:49;;;;;;;4.20;3.80;;;2.40;99.90;;;;;;5022354;28;20272;-81
2021/03/05 08:22:16;;;;;;;7.35;3.55;;;2.40;99.90;;;;;;5020602;28;20324;-80
2021/03/05 08:24:43;;;;;;;4.95;3.30;;;2.40;99.90;;;;;;5026027;28;20208;-80
2021/03/05 08:27:11;;;;;;;3.70;3.40;;;2.30;99.90;;;;;;5029622;28;20223;-79
2021/03/05 08:30:00;;;;;;;6.63;3.25;;;2.40;99.90;;;;;;5029584;28;20197;-79
2021/03/05 08:32:58;;;;;;;4.55;4.13;;;2.50;99.90;;;;;;5024997;28;20302;-82
2021/03/05 08:35:44;;;;;;;8.57;4.18;;;2.60;99.90;;;;;;5021907;28;20193;-81
2021/03/05 08:38:19;;;;;;;12.55;6.75;;;2.70;99.90;;;;;;5023943;28;20200;-82
2021/03/05 08:40:52;;;;;;;7.13;5.00;;;2.70;99.90;;;;;;5021971;28;20196;-81
2021/03/05 08:43:23;;;;;;;5.63;5.05;;;2.80;99.90;;;;;;5020321;28;20224;-80
2021/03/05 08:45:51;;;;;;;8.60;5.70;;;3.10;99.90;;;;;;5022370;28;20259;-82
2021/03/05 08:48:33;;;;;;;5.20;4.22;;;3.20;99.90;;;;;;5025801;28;20211;-82
2021/03/05 08:51:04;;;;;;;4.13;3.63;;;3.30;99.90;;;;;;5022153;28;20184;-82
2021/03/05 08:53:36;;;;;;;5.65;4.82;;;3.10;99.90;;;;;;5024582;28;20227;-80
2021/03/05 08:56:03;;;;;;;5.40;4.72;;;2.80;99.90;;;;;;5031250;28;20192;-80
2021/03/05 08:58:29;;;;;;;6.20;4.63;;;2.80;99.90;;;;;;5031059;28;20208;-80
2021/03/05 09:00:55;;;;;;;6.25;4.13;;;2.80;99.90;;;;;;5032777;28;20211;-80
2021/03/05 09:03:21;;;;;;;10.00;5.60;;;3.00;99.90;;;;;;5031228;28;20331;-80
2021/03/05 09:05:50;;;;;;;2.88;2.67;;;3.40;99.90;;;;;;5032427;28;20211;-80
2021/03/05 09:08:20;;;;;;;6.72;4.65;;;3.20;99.90;;;;;;5029160;28;20204;-80
2021/03/05 09:10:48;;;;;;;6.10;4.97;;;3.20;99.90;;;;;;5035927;28;20176;-81
2021/03/05 09:13:16;;;;;;;8.13;5.07;;;2.90;99.90;;;;;;5036540;28;20220;-81
2021/03/05 09:15:44;;;;;;;7.65;5.65;;;3.00;99.90;;;;;;5033892;28;20205;-80
2021/03/05 09:18:12;;;;;;;11.68;6.07;;;3.20;99.90;;;;;;5029619;28;20231;-83
2021/03/05 09:20:44;;;;;;;11.05;6.95;;;3.30;99.90;;;;;;5024710;28;20201;-81
2021/03/05 09:23:26;;;;;;;10.80;7.80;;;3.30;99.90;;;;;;5021555;28;20263;-82
2021/03/05 09:25:54;;;;;;;9.25;7.20;;;3.30;99.90;;;;;;5022005;28;20227;-82
2021/03/05 09:28:22;;;;;;;7.25;5.80;;;3.40;99.90;;;;;;5022487;28;20200;-83
2021/03/05 09:30:53;;;;;;;9.77;6.70;;;3.50;99.90;;;;;;5028708;28;20350;-82
2021/03/05 09:33:27;;;;;;;9.20;6.45;;;3.60;99.90;;;;;;5026526;28;20220;-82
2021/03/05 09:36:05;;;;;;;10.05;7.60;;;3.80;99.90;;;;;;5023194;28;20275;-82
2021/03/05 09:38:32;;;;;;;6.82;4.80;;;3.80;99.90;;;;;;5023513;28;20644;-82
2021/03/05 09:41:13;;;;;;;7.85;5.03;;;3.50;99.90;;;;;;5022872;28;20208;-82
2021/03/05 09:43:59;;;;;;;3.95;3.55;;;3.70;99.90;;;;;;5024978;28;20275;-81
2021/03/05 09:46:26;;;;;;;7.18;4.82;;;2.70;99.90;;;;;;5030382;28;20192;-82
2021/03/05 09:48:54;;;;;;;5.78;4.45;;;3.60;99.90;;;;;;5025388;28;20204;-82
2021/03/05 09:51:20;;;;;;;4.68;4.00;;;3.60;99.90;;;;;;5025215;28;20200;-83
2021/03/05 09:53:52;;;;;;;5.65;4.65;;;3.80;99.90;;;;;;5023228;28;20279;-83
2021/03/05 09:56:19;;;;;;;5.03;2.60;;;3.80;99.90;;;;;;5021597;28;20237;-81
2021/03/05 09:59:00;;;;;;;8.23;4.38;;;3.90;99.90;;;;;;5022982;28;20208;-82
2021/03/05 10:01:27;;;;;;;5.05;4.03;;;3.50;99.90;;;;;;5024611;28;20713;-82
2021/03/05 10:03:55;;;;;;;5.60;5.10;;;3.40;99.90;;;;;;5074790;23;20245;-78
2021/03/05 10:06:21;;;;;;;4.35;3.45;;;3.30;99.90;;;;;;5072628;28;20203;-78
2021/03/05 10:08:47;;;;;;;4.43;4.07;;;3.30;99.90;;;;;;5071820;28;20681;-78
2021/03/05 10:11:14;;;;;;;2.30;2.15;;;3.40;99.90;;;;;;5072657;28;20202;-79
2021/03/05 10:13:53;;;;;;;5.28;4.65;;;3.60;99.90;;;;;;5070237;28;20229;-79
2021/03/05 10:16:26;;;;;;;4.32;3.03;;;3.30;99.90;;;;;;5068802;28;20202;-79
2021/03/05 10:18:54;;;;;;;4.40;4.00;;;3.30;99.90;;;;;;5072160;28;20260;-80
2021/03/05 10:21:22;;;;;;;5.38;3.53;;;3.40;99.90;;;;;;5072985;28;20257;-79
2021/03/05 10:23:48;;;;;;;4.20;3.00;;;3.50;99.90;;;;;;5072958;28;20234;-78
2021/03/05 10:26:17;;;;;;;3.33;3.05;;;3.60;99.90;;;;;;5073057;28;20207;-82
2021/03/05 10:28:44;;;;;;;2.70;2.45;;;3.70;99.90;;;;;;5072822;28;20206;-79
2021/03/05 10:31:10;;;;;;;3.42;3.08;;;3.60;99.90;;;;;;5073000;28;20221;-79
2021/03/05 10:33:42;;;;;;;7.70;3.60;;;3.60;99.90;;;;;;5072691;28;20226;-80
2021/03/05 10:36:09;;;;;;;3.97;3.35;;;3.80;99.90;;;;;;5072983;28;20237;-79
2021/03/05 10:38:37;;;;;;;2.10;2.00;;;4.20;99.90;;;;;;5071912;28;20215;-84
2021/03/05 10:41:04;;;;;;;6.15;2.10;;;4.10;99.90;;;;;;5069964;28;20198;-84
2021/03/05 10:43:31;;;;;;;6.20;3.05;;;4.10;99.90;;;;;;5069596;28;20223;-83
2021/03/05 10:45:57;;;;;;;2.42;2.22;;;3.60;99.90;;;;;;5069088;28;20206;-83
2021/03/05 10:48:24;;;;;;;4.47;2.10;;;4.10;99.90;;;;;;5071366;28;20199;-83
2021/03/05 10:50:51;;;;;;;2.78;1.80;;;4.10;99.90;;;;;;5071868;28;20210;-84
2021/03/05 10:53:17;;;;;;;1.67;1.58;;;4.10;99.90;;;;;;5066984;28;20219;-82
2021/03/05 10:55:43;;;;;;;1.83;1.73;;;4.10;99.90;;;;;;5063788;28;20210;-82
2021/03/05 10:58:09;;;;;;;3.35;1.85;;;4.00;99.90;;;;;;5060056;28;20207;-81
2021/03/05 11:00:35;;;;;;;3.25;2.28;;;3.80;99.90;;;;;;5059383;28;20203;-84
2021/03/05 11:03:01;;;;;;;2.67;2.20;;;4.20;99.90;;;;;;5061071;28;20230;-83
2021/03/05 11:05:28;;;;;;;2.22;2.13;;;4.20;99.90;;;;;;5061327;28;20198;-81
2021/03/05 11:07:55;;;;;;;1.80;1.70;;;4.00;99.90;;;;;;5060488;28;20198;-81
2021/03/05 11:10:22;;;;;;;4.15;2.25;;;4.30;99.90;;;;;;5061395;28;20203;-82
2021/03/05 11:12:49;;;;;;;5.57;2.30;;;4.10;99.90;;;;;;5060488;28;20222;-81
2021/03/05 11:15:18;;;;;;;3.72;1.67;;;4.30;99.90;;;;;;5062059;28;20226;-85
2021/03/05 11:17:45;;;;;;;4.75;2.30;;;4.10;99.90;;;;;;5064453;28;20214;-84
2021/03/05 11:20:15;;;;;;;2.45;1.90;;;4.30;99.90;;;;;;5065902;28;20206;-83
2021/03/05 11:22:41;;;;;;;2.30;2.10;;;4.60;99.90;;;;;;5073339;28;20200;-83
2021/03/05 11:25:09;;;;;;;3.40;2.33;;;4.20;99.90;;;;;;5066049;28;20203;-82
2021/03/05 11:27:56;;;;;;;3.20;2.35;;;4.30;99.90;;;;;;5064560;28;20213;-86
2021/03/05 11:30:23;;;;;;;3.13;2.13;;;5.50;99.90;;;;;;5068328;28;20187;-82
2021/03/05 11:32:49;;;;;;;2.40;2.20;;;4.40;99.90;;;;;;5074098;28;20246;-80
2021/03/05 11:35:16;;;;;;;3.97;2.85;;;4.40;99.90;;;;;;5071613;28;20276;-83
2021/03/05 11:37:42;;;;;;;2.55;2.33;;;4.40;99.90;;;;;;5075614;28;20210;-82
2021/03/05 11:40:10;;;;;;;2.45;2.25;;;4.40;99.90;;;;;;5076280;28;20206;-84
2021/03/05 11:42:36;;;;;;;7.13;2.63;;;4.80;99.90;;;;;;5070418;28;20249;-84
2021/03/05 11:45:05;;;;;;;5.65;2.78;;;4.60;99.90;;;;;;5067485;28;20203;-83
2021/03/05 11:47:31;;;;;;;2.00;1.90;;;4.80;99.90;;;;;;5068909;28;20283;-80
2021/03/05 11:49:57;;;;;;;2.08;1.88;;;4.80;99.90;;;;;;5069090;28;20225;-81
2021/03/05 11:52:23;;;;;;;3.10;2.20;;;4.90;99.90;;;;;;5070570;28;20207;-80
2021/03/05 11:54:49;;;;;;;2.63;2.25;;;5.00;99.90;;;;;;5074266;28;20227;-79
2021/03/05 11:57:16;;;;;;;2.35;2.15;;;5.70;99.90;;;;;;5073555;28;20232;-79
2021/03/05 11:59:42;;;;;;;4.13;2.95;;;5.10;99.90;;;;;;5070737;28;20202;-81
2021/03/05 12:02:08;;;;;;;2.03;1.83;;;5.10;99.90;;;;;;5073074;28;20231;-78
2021/03/05 12:04:34;;;;;;;3.78;1.90;;;5.00;99.90;;;;;;5074591;28;20219;-80
2021/03/05 12:07:00;;;;;;;2.30;1.70;;;4.90;99.90;;;;;;5070845;28;20207;-81
2021/03/05 12:09:27;;;;;;;2.63;1.65;;;4.80;99.90;;;;;;5071030;28;20203;-80
2021/03/05 12:11:53;;;;;;;1.73;1.63;;;5.00;99.90;;;;;;5074873;28;20206;-80
2021/03/05 12:14:20;;;;;;;1.90;1.75;;;4.90;99.90;;;;;;5074354;28;20231;-79
2021/03/05 12:16:46;;;;;;;1.95;1.73;;;4.90;99.90;;;;;;5072479;28;20214;-80
2021/03/05 12:19:12;;;;;;;4.38;1.55;;;4.80;99.90;;;;;;5077741;28;20203;-78
2021/03/05 12:21:38;;;;;;;3.17;1.75;;;4.80;99.90;;;;;;5073366;28;20715;-80
2021/03/05 12:24:05;;;;;;;1.35;1.25;;;4.90;99.90;;;;;;5075752;28;20217;-80
2021/03/05 12:26:31;;;;;;;1.45;1.10;;;5.00;99.90;;;;;;5073081;28;20203;-80
2021/03/05 12:28:57;;;;;;;2.08;1.52;;;5.00;99.90;;;;;;5070874;28;20211;-80
2021/03/05 12:31:24;;;;;;;1.70;1.50;;;4.90;99.90;;;;;;5072106;28;20199;-80
2021/03/05 12:33:51;;;;;;;3.75;1.30;;;5.20;99.90;;;;;;5070371;28;20223;-80
2021/03/05 12:36:17;;;;;;;5.38;1.55;;;5.30;99.90;;;;;;5073849;28;20207;-82
2021/03/05 12:38:44;;;;;;;0.90;0.90;;;5.20;98.30;;;;;;5073836;28;20203;-80
2021/03/05 12:41:10;;;;;;;2.92;1.70;;;5.10;95.70;;;;;;5071450;28;20214;-79
2021/03/05 12:43:37;;;;;;;1.73;1.00;;;5.20;96.20;;;;;;5071649;28;20227;-79
2021/03/05 12:46:03;;;;;;;1.60;1.10;;;5.10;99.90;;;;;;5078187;28;20210;-80
2021/03/05 12:48:30;;;;;;;1.50;1.40;;;5.20;93.80;;;;;;5064860;28;20210;-81
2021/03/05 12:50:56;;;;;;;1.45;1.25;;;5.20;95.20;;;;;;5064534;28;20226;-80
2021/03/05 12:53:22;;;;;;;4.82;1.92;;;5.30;98.10;;;;;;5065743;28;20595;-79
2021/03/05 12:55:48;;;;;;;3.33;1.95;;;5.20;98.90;;;;;;5062881;28;20210;-80